sensor_id;sensor_type;location;lat;lon;timestamp;P1;durP1;ratioP1;P2;durP2;ratioP2
8349;SDS011;60699;48.946;8.412;2023-02-24T00:01:32;19.02;;;13.48;;
8349;SDS011;60699;48.946;8.412;2023-02-24T00:04:02;19.75;;;13.35;;
8349;SDS011;60699;48.946;8.412;2023-02-24T00:06:31;21.88;;;14.35;;
8349;SDS011;60699;48.946;8.412;2023-02-24T00:09:01;20.00;;;12.90;;
8349;SDS011;60699;48.946;8.412;2023-02-24T00:11:30;18.80;;;14.65;;
8349;SDS011;60699;48.946;8.412;2023-02-24T00:13:58;19.90;;;13.38;;
8349;SDS011;60699;48.946;8.412;2023-02-24T00:16:26;18.88;;;12.60;;
8349;SDS011;60699;48.946;8.412;2023-02-24T00:18:53;18.75;;;12.60;;
8349;SDS011;60699;48.946;8.412;2023-02-24T00:21:20;20.88;;;12.13;;
8349;SDS011;60699;48.946;8.412;2023-02-24T00:23:47;20.98;;;12.77;;
8349;SDS011;60699;48.946;8.412;2023-02-24T00:26:15;17.02;;;11.55;;
8349;SDS011;60699;48.946;8.412;2023-02-24T00:28:43;20.27;;;13.95;;
8349;SDS011;60699;48.946;8.412;2023-02-24T00:31:11;20.52;;;13.30;;
8349;SDS011;60699;48.946;8.412;2023-02-24T00:33:41;20.05;;;13.40;;
8349;SDS011;60699;48.946;8.412;2023-02-24T00:36:09;17.92;;;12.38;;
8349;SDS011;60699;48.946;8.412;2023-02-24T00:38:37;22.75;;;13.65;;
8349;SDS011;60699;48.946;8.412;2023-02-24T00:41:09;24.52;;;14.82;;
8349;SDS011;60699;48.946;8.412;2023-02-24T00:43:36;21.85;;;13.25;;
8349;SDS011;60699;48.946;8.412;2023-02-24T00:46:03;23.75;;;13.88;;
8349;SDS011;60699;48.946;8.412;2023-02-24T00:48:35;32.55;;;15.30;;
8349;SDS011;60699;48.946;8.412;2023-02-24T00:51:05;20.70;;;13.05;;
8349;SDS011;60699;48.946;8.412;2023-02-24T00:53:33;22.20;;;13.00;;
8349;SDS011;60699;48.946;8.412;2023-02-24T00:56:00;21.83;;;13.60;;
8349;SDS011;60699;48.946;8.412;2023-02-24T00:58:31;19.42;;;12.60;;
8349;SDS011;60699;48.946;8.412;2023-02-24T01:00:58;27.90;;;15.18;;
8349;SDS011;60699;48.946;8.412;2023-02-24T01:03:26;24.85;;;13.95;;
8349;SDS011;60699;48.946;8.412;2023-02-24T01:05:53;28.05;;;14.98;;
8349;SDS011;60699;48.946;8.412;2023-02-24T01:08:21;26.55;;;15.77;;
8349;SDS011;60699;48.946;8.412;2023-02-24T01:10:55;25.02;;;14.40;;
8349;SDS011;60699;48.946;8.412;2023-02-24T01:13:36;24.75;;;15.27;;
8349;SDS011;60699;48.946;8.412;2023-02-24T01:16:03;23.35;;;15.15;;
8349;SDS011;60699;48.946;8.412;2023-02-24T01:18:31;32.10;;;17.23;;
8349;SDS011;60699;48.946;8.412;2023-02-24T01:20:58;26.00;;;16.33;;
8349;SDS011;60699;48.946;8.412;2023-02-24T01:23:26;28.80;;;17.88;;
8349;SDS011;60699;48.946;8.412;2023-02-24T01:25:53;30.58;;;15.95;;
8349;SDS011;60699;48.946;8.412;2023-02-24T01:28:24;28.25;;;14.73;;
8349;SDS011;60699;48.946;8.412;2023-02-24T01:30:51;22.40;;;15.52;;
8349;SDS011;60699;48.946;8.412;2023-02-24T01:33:18;32.47;;;16.42;;
8349;SDS011;60699;48.946;8.412;2023-02-24T01:35:46;31.95;;;15.38;;
8349;SDS011;60699;48.946;8.412;2023-02-24T01:38:13;32.83;;;16.45;;
8349;SDS011;60699;48.946;8.412;2023-02-24T01:40:41;26.35;;;13.85;;
8349;SDS011;60699;48.946;8.412;2023-02-24T01:43:09;36.35;;;17.63;;
8349;SDS011;60699;48.946;8.412;2023-02-24T01:45:36;32.17;;;18.00;;
8349;SDS011;60699;48.946;8.412;2023-02-24T01:48:05;34.20;;;16.95;;
8349;SDS011;60699;48.946;8.412;2023-02-24T01:50:34;28.40;;;15.15;;
8349;SDS011;60699;48.946;8.412;2023-02-24T01:53:03;35.55;;;17.00;;
8349;SDS011;60699;48.946;8.412;2023-02-24T01:55:31;29.25;;;15.45;;
8349;SDS011;60699;48.946;8.412;2023-02-24T01:58:03;31.25;;;16.17;;
8349;SDS011;60699;48.946;8.412;2023-02-24T02:00:31;34.38;;;16.30;;
8349;SDS011;60699;48.946;8.412;2023-02-24T02:03:10;26.67;;;15.57;;
8349;SDS011;60699;48.946;8.412;2023-02-24T02:05:39;31.95;;;14.93;;
8349;SDS011;60699;48.946;8.412;2023-02-24T02:08:07;30.88;;;15.93;;
8349;SDS011;60699;48.946;8.412;2023-02-24T02:10:34;34.85;;;17.70;;
8349;SDS011;60699;48.946;8.412;2023-02-24T02:13:04;27.73;;;16.30;;
8349;SDS011;60699;48.946;8.412;2023-02-24T02:15:34;30.50;;;15.98;;
8349;SDS011;60699;48.946;8.412;2023-02-24T02:18:06;30.55;;;17.38;;
8349;SDS011;60699;48.946;8.412;2023-02-24T02:23:41;32.15;;;16.20;;
8349;SDS011;60699;48.946;8.412;2023-02-24T02:29:06;41.00;;;17.88;;
8349;SDS011;60699;48.946;8.412;2023-02-24T02:34:28;36.45;;;17.88;;
8349;SDS011;60699;48.946;8.412;2023-02-24T02:36:59;34.72;;;16.30;;
8349;SDS011;60699;48.946;8.412;2023-02-24T02:39:32;34.50;;;17.65;;
8349;SDS011;60699;48.946;8.412;2023-02-24T02:42:03;32.38;;;16.35;;
8349;SDS011;60699;48.946;8.412;2023-02-24T02:44:39;34.22;;;16.83;;
8349;SDS011;60699;48.946;8.412;2023-02-24T02:47:12;36.20;;;17.45;;
8349;SDS011;60699;48.946;8.412;2023-02-24T02:49:44;33.30;;;17.05;;
8349;SDS011;60699;48.946;8.412;2023-02-24T02:52:14;33.85;;;17.13;;
8349;SDS011;60699;48.946;8.412;2023-02-24T02:54:44;33.22;;;17.30;;
8349;SDS011;60699;48.946;8.412;2023-02-24T02:57:14;40.63;;;17.17;;
8349;SDS011;60699;48.946;8.412;2023-02-24T02:59:44;36.70;;;18.38;;
8349;SDS011;60699;48.946;8.412;2023-02-24T03:02:13;30.13;;;16.25;;
8349;SDS011;60699;48.946;8.412;2023-02-24T03:04:44;31.63;;;15.70;;
8349;SDS011;60699;48.946;8.412;2023-02-24T03:07:12;37.63;;;18.05;;
8349;SDS011;60699;48.946;8.412;2023-02-24T03:09:42;31.90;;;17.42;;
8349;SDS011;60699;48.946;8.412;2023-02-24T03:12:11;37.97;;;16.30;;
8349;SDS011;60699;48.946;8.412;2023-02-24T03:14:40;28.20;;;15.07;;
8349;SDS011;60699;48.946;8.412;2023-02-24T03:17:10;38.17;;;15.68;;
8349;SDS011;60699;48.946;8.412;2023-02-24T03:19:41;37.85;;;16.80;;
8349;SDS011;60699;48.946;8.412;2023-02-24T03:22:10;33.80;;;18.20;;
8349;SDS011;60699;48.946;8.412;2023-02-24T03:24:39;35.17;;;16.35;;
8349;SDS011;60699;48.946;8.412;2023-02-24T03:27:09;42.90;;;17.73;;
8349;SDS011;60699;48.946;8.412;2023-02-24T03:29:38;35.53;;;18.13;;
8349;SDS011;60699;48.946;8.412;2023-02-24T03:32:10;38.97;;;16.75;;
8349;SDS011;60699;48.946;8.412;2023-02-24T03:34:40;46.83;;;18.15;;
8349;SDS011;60699;48.946;8.412;2023-02-24T03:37:11;41.85;;;19.17;;
8349;SDS011;60699;48.946;8.412;2023-02-24T03:39:39;35.30;;;18.42;;
8349;SDS011;60699;48.946;8.412;2023-02-24T03:42:07;33.00;;;18.23;;
8349;SDS011;60699;48.946;8.412;2023-02-24T03:44:36;42.40;;;18.85;;
8349;SDS011;60699;48.946;8.412;2023-02-24T03:47:03;37.25;;;17.10;;
8349;SDS011;60699;48.946;8.412;2023-02-24T03:49:33;34.08;;;17.60;;
8349;SDS011;60699;48.946;8.412;2023-02-24T03:52:07;38.10;;;17.45;;
8349;SDS011;60699;48.946;8.412;2023-02-24T03:54:42;40.55;;;18.00;;
8349;SDS011;60699;48.946;8.412;2023-02-24T03:57:16;34.17;;;18.13;;
8349;SDS011;60699;48.946;8.412;2023-02-24T03:59:48;38.20;;;18.42;;
8349;SDS011;60699;48.946;8.412;2023-02-24T04:02:19;56.38;;;21.58;;
8349;SDS011;60699;48.946;8.412;2023-02-24T04:04:49;42.28;;;18.17;;
8349;SDS011;60699;48.946;8.412;2023-02-24T04:07:20;39.42;;;16.40;;
8349;SDS011;60699;48.946;8.412;2023-02-24T04:09:53;36.90;;;16.05;;
8349;SDS011;60699;48.946;8.412;2023-02-24T04:12:25;33.55;;;16.98;;
8349;SDS011;60699;48.946;8.412;2023-02-24T04:14:53;34.00;;;17.25;;
8349;SDS011;60699;48.946;8.412;2023-02-24T04:17:22;35.55;;;18.60;;
8349;SDS011;60699;48.946;8.412;2023-02-24T04:19:53;32.90;;;18.15;;
8349;SDS011;60699;48.946;8.412;2023-02-24T04:22:21;41.33;;;18.73;;
8349;SDS011;60699;48.946;8.412;2023-02-24T04:24:49;37.28;;;18.88;;
8349;SDS011;60699;48.946;8.412;2023-02-24T04:27:18;38.08;;;18.98;;
8349;SDS011;60699;48.946;8.412;2023-02-24T04:29:48;38.42;;;17.60;;
8349;SDS011;60699;48.946;8.412;2023-02-24T04:32:17;35.75;;;16.38;;
8349;SDS011;60699;48.946;8.412;2023-02-24T04:34:45;38.70;;;17.00;;
8349;SDS011;60699;48.946;8.412;2023-02-24T04:37:12;36.00;;;18.85;;
8349;SDS011;60699;48.946;8.412;2023-02-24T04:39:39;34.22;;;17.80;;
8349;SDS011;60699;48.946;8.412;2023-02-24T04:42:06;41.78;;;22.33;;
8349;SDS011;60699;48.946;8.412;2023-02-24T04:44:36;34.42;;;17.90;;
8349;SDS011;60699;48.946;8.412;2023-02-24T04:47:03;43.75;;;18.02;;
8349;SDS011;60699;48.946;8.412;2023-02-24T04:49:30;39.88;;;18.70;;
8349;SDS011;60699;48.946;8.412;2023-02-24T04:51:58;44.72;;;17.10;;
8349;SDS011;60699;48.946;8.412;2023-02-24T04:54:24;37.53;;;17.95;;
8349;SDS011;60699;48.946;8.412;2023-02-24T04:56:53;37.20;;;16.27;;
8349;SDS011;60699;48.946;8.412;2023-02-24T04:59:21;39.10;;;18.13;;
8349;SDS011;60699;48.946;8.412;2023-02-24T05:01:50;38.90;;;18.80;;
8349;SDS011;60699;48.946;8.412;2023-02-24T05:04:19;43.45;;;18.30;;
8349;SDS011;60699;48.946;8.412;2023-02-24T05:06:46;43.33;;;20.58;;
8349;SDS011;60699;48.946;8.412;2023-02-24T05:09:14;44.70;;;18.58;;
8349;SDS011;60699;48.946;8.412;2023-02-24T05:11:42;42.05;;;22.23;;
8349;SDS011;60699;48.946;8.412;2023-02-24T05:14:10;40.45;;;19.50;;
8349;SDS011;60699;48.946;8.412;2023-02-24T05:16:39;38.28;;;17.15;;
8349;SDS011;60699;48.946;8.412;2023-02-24T05:19:09;40.53;;;18.05;;
8349;SDS011;60699;48.946;8.412;2023-02-24T05:21:53;40.63;;;19.00;;
8349;SDS011;60699;48.946;8.412;2023-02-24T05:24:21;44.42;;;18.40;;
8349;SDS011;60699;48.946;8.412;2023-02-24T05:26:49;38.45;;;17.95;;
8349;SDS011;60699;48.946;8.412;2023-02-24T05:29:22;33.53;;;16.45;;
8349;SDS011;60699;48.946;8.412;2023-02-24T05:31:50;37.50;;;16.40;;
8349;SDS011;60699;48.946;8.412;2023-02-24T05:34:19;38.63;;;18.20;;
8349;SDS011;60699;48.946;8.412;2023-02-24T05:36:48;31.42;;;15.80;;
8349;SDS011;60699;48.946;8.412;2023-02-24T05:39:17;39.97;;;16.73;;
8349;SDS011;60699;48.946;8.412;2023-02-24T05:41:44;31.33;;;16.08;;
8349;SDS011;60699;48.946;8.412;2023-02-24T05:44:13;30.15;;;17.30;;
8349;SDS011;60699;48.946;8.412;2023-02-24T05:46:41;41.88;;;17.10;;
8349;SDS011;60699;48.946;8.412;2023-02-24T05:49:10;43.42;;;19.33;;
8349;SDS011;60699;48.946;8.412;2023-02-24T05:51:39;31.60;;;15.32;;
8349;SDS011;60699;48.946;8.412;2023-02-24T05:54:18;48.58;;;19.25;;
8349;SDS011;60699;48.946;8.412;2023-02-24T05:56:46;38.08;;;17.33;;
8349;SDS011;60699;48.946;8.412;2023-02-24T05:59:13;37.38;;;17.65;;
8349;SDS011;60699;48.946;8.412;2023-02-24T06:01:45;48.53;;;17.90;;
8349;SDS011;60699;48.946;8.412;2023-02-24T06:04:13;41.05;;;18.08;;
8349;SDS011;60699;48.946;8.412;2023-02-24T06:06:46;36.45;;;17.75;;
8349;SDS011;60699;48.946;8.412;2023-02-24T06:09:16;33.28;;;16.25;;
8349;SDS011;60699;48.946;8.412;2023-02-24T06:11:43;40.92;;;17.65;;
8349;SDS011;60699;48.946;8.412;2023-02-24T06:14:11;39.20;;;16.38;;
8349;SDS011;60699;48.946;8.412;2023-02-24T06:16:40;31.63;;;14.07;;
8349;SDS011;60699;48.946;8.412;2023-02-24T06:19:08;34.75;;;16.25;;
8349;SDS011;60699;48.946;8.412;2023-02-24T06:21:35;37.67;;;17.08;;
8349;SDS011;60699;48.946;8.412;2023-02-24T06:24:08;30.55;;;16.10;;
8349;SDS011;60699;48.946;8.412;2023-02-24T06:26:38;30.40;;;16.63;;
8349;SDS011;60699;48.946;8.412;2023-02-24T06:29:09;31.77;;;15.25;;
8349;SDS011;60699;48.946;8.412;2023-02-24T06:31:37;36.13;;;13.77;;
8349;SDS011;60699;48.946;8.412;2023-02-24T06:34:05;36.08;;;15.95;;
8349;SDS011;60699;48.946;8.412;2023-02-24T06:36:34;34.70;;;15.38;;
8349;SDS011;60699;48.946;8.412;2023-02-24T06:39:01;43.38;;;17.42;;
8349;SDS011;60699;48.946;8.412;2023-02-24T06:41:33;44.15;;;15.75;;
8349;SDS011;60699;48.946;8.412;2023-02-24T06:44:01;55.20;;;20.73;;
8349;SDS011;60699;48.946;8.412;2023-02-24T06:46:29;41.47;;;17.38;;
8349;SDS011;60699;48.946;8.412;2023-02-24T06:48:56;45.30;;;16.23;;
8349;SDS011;60699;48.946;8.412;2023-02-24T06:51:23;29.23;;;14.73;;
8349;SDS011;60699;48.946;8.412;2023-02-24T06:53:54;40.85;;;19.08;;
8349;SDS011;60699;48.946;8.412;2023-02-24T06:56:21;42.28;;;17.08;;
8349;SDS011;60699;48.946;8.412;2023-02-24T06:58:51;35.15;;;17.05;;
8349;SDS011;60699;48.946;8.412;2023-02-24T07:01:22;32.13;;;15.95;;
8349;SDS011;60699;48.946;8.412;2023-02-24T07:03:50;45.97;;;18.70;;
8349;SDS011;60699;48.946;8.412;2023-02-24T07:06:43;40.38;;;16.15;;
8349;SDS011;60699;48.946;8.412;2023-02-24T07:09:12;41.85;;;17.45;;
8349;SDS011;60699;48.946;8.412;2023-02-24T07:11:40;38.83;;;18.23;;
8349;SDS011;60699;48.946;8.412;2023-02-24T07:14:09;39.85;;;17.48;;
8349;SDS011;60699;48.946;8.412;2023-02-24T07:16:37;38.33;;;17.70;;
8349;SDS011;60699;48.946;8.412;2023-02-24T07:19:08;35.80;;;15.95;;
8349;SDS011;60699;48.946;8.412;2023-02-24T07:21:38;37.05;;;16.13;;
8349;SDS011;60699;48.946;8.412;2023-02-24T07:24:07;40.67;;;15.48;;
8349;SDS011;60699;48.946;8.412;2023-02-24T07:26:37;34.25;;;15.20;;
8349;SDS011;60699;48.946;8.412;2023-02-24T07:29:05;38.50;;;15.88;;
8349;SDS011;60699;48.946;8.412;2023-02-24T07:31:34;32.28;;;13.82;;
8349;SDS011;60699;48.946;8.412;2023-02-24T07:34:01;37.38;;;15.32;;
8349;SDS011;60699;48.946;8.412;2023-02-24T07:36:29;34.30;;;17.25;;
8349;SDS011;60699;48.946;8.412;2023-02-24T07:39:03;34.75;;;14.88;;
8349;SDS011;60699;48.946;8.412;2023-02-24T07:41:32;39.83;;;15.93;;
8349;SDS011;60699;48.946;8.412;2023-02-24T07:44:01;32.97;;;14.68;;
8349;SDS011;60699;48.946;8.412;2023-02-24T07:46:33;40.38;;;16.65;;
8349;SDS011;60699;48.946;8.412;2023-02-24T07:49:01;33.65;;;16.02;;
8349;SDS011;60699;48.946;8.412;2023-02-24T07:51:28;38.97;;;17.65;;
8349;SDS011;60699;48.946;8.412;2023-02-24T07:53:56;37.50;;;17.25;;
8349;SDS011;60699;48.946;8.412;2023-02-24T07:56:24;45.40;;;18.23;;
8349;SDS011;60699;48.946;8.412;2023-02-24T07:58:52;41.05;;;17.67;;
8349;SDS011;60699;48.946;8.412;2023-02-24T08:01:23;41.65;;;16.17;;
8349;SDS011;60699;48.946;8.412;2023-02-24T08:03:54;39.47;;;17.63;;
8349;SDS011;60699;48.946;8.412;2023-02-24T08:06:21;43.58;;;15.77;;
8349;SDS011;60699;48.946;8.412;2023-02-24T08:08:53;37.65;;;17.13;;
8349;SDS011;60699;48.946;8.412;2023-02-24T08:11:25;38.08;;;16.63;;
8349;SDS011;60699;48.946;8.412;2023-02-24T08:13:58;34.03;;;16.50;;
8349;SDS011;60699;48.946;8.412;2023-02-24T08:16:26;46.55;;;17.90;;
8349;SDS011;60699;48.946;8.412;2023-02-24T08:19:04;40.63;;;18.40;;
8349;SDS011;60699;48.946;8.412;2023-02-24T08:21:31;34.50;;;16.70;;
8349;SDS011;60699;48.946;8.412;2023-02-24T08:24:05;37.60;;;15.75;;
8349;SDS011;60699;48.946;8.412;2023-02-24T08:26:33;41.63;;;17.95;;
8349;SDS011;60699;48.946;8.412;2023-02-24T08:29:08;41.15;;;16.38;;
8349;SDS011;60699;48.946;8.412;2023-02-24T08:31:35;42.72;;;16.85;;
8349;SDS011;60699;48.946;8.412;2023-02-24T08:34:02;42.17;;;16.88;;
8349;SDS011;60699;48.946;8.412;2023-02-24T08:36:30;35.15;;;17.90;;
8349;SDS011;60699;48.946;8.412;2023-02-24T08:38:57;35.35;;;18.35;;
8349;SDS011;60699;48.946;8.412;2023-02-24T08:41:25;35.17;;;15.30;;
8349;SDS011;60699;48.946;8.412;2023-02-24T08:44:09;44.78;;;16.98;;
8349;SDS011;60699;48.946;8.412;2023-02-24T08:46:36;44.28;;;16.92;;
8349;SDS011;60699;48.946;8.412;2023-02-24T08:49:03;32.97;;;15.77;;
8349;SDS011;60699;48.946;8.412;2023-02-24T08:51:37;37.53;;;15.43;;
8349;SDS011;60699;48.946;8.412;2023-02-24T08:54:09;40.80;;;16.98;;
8349;SDS011;60699;48.946;8.412;2023-02-24T08:56:39;36.25;;;17.73;;
8349;SDS011;60699;48.946;8.412;2023-02-24T08:59:08;38.35;;;16.73;;
8349;SDS011;60699;48.946;8.412;2023-02-24T09:01:53;35.58;;;14.30;;
8349;SDS011;60699;48.946;8.412;2023-02-24T09:04:40;33.80;;;14.05;;
8349;SDS011;60699;48.946;8.412;2023-02-24T09:07:12;29.65;;;14.32;;
8349;SDS011;60699;48.946;8.412;2023-02-24T09:09:40;33.33;;;15.15;;
8349;SDS011;60699;48.946;8.412;2023-02-24T09:12:08;36.85;;;15.65;;
8349;SDS011;60699;48.946;8.412;2023-02-24T09:14:46;32.85;;;14.07;;
8349;SDS011;60699;48.946;8.412;2023-02-24T09:17:14;41.47;;;15.95;;
8349;SDS011;60699;48.946;8.412;2023-02-24T09:19:45;33.60;;;15.48;;
8349;SDS011;60699;48.946;8.412;2023-02-24T09:22:31;33.78;;;15.18;;
8349;SDS011;60699;48.946;8.412;2023-02-24T09:25:05;32.85;;;16.05;;
8349;SDS011;60699;48.946;8.412;2023-02-24T09:27:48;29.35;;;16.45;;
8349;SDS011;60699;48.946;8.412;2023-02-24T09:30:19;33.13;;;16.13;;
8349;SDS011;60699;48.946;8.412;2023-02-24T09:33:09;29.50;;;13.57;;
8349;SDS011;60699;48.946;8.412;2023-02-24T09:35:42;34.63;;;15.82;;
8349;SDS011;60699;48.946;8.412;2023-02-24T09:38:12;34.95;;;15.82;;
8349;SDS011;60699;48.946;8.412;2023-02-24T09:40:41;40.00;;;18.48;;
8349;SDS011;60699;48.946;8.412;2023-02-24T09:43:14;37.42;;;15.25;;
8349;SDS011;60699;48.946;8.412;2023-02-24T09:45:45;41.28;;;16.15;;
8349;SDS011;60699;48.946;8.412;2023-02-24T09:48:18;36.17;;;15.00;;
8349;SDS011;60699;48.946;8.412;2023-02-24T09:50:47;42.10;;;15.48;;
8349;SDS011;60699;48.946;8.412;2023-02-24T09:53:29;26.95;;;14.32;;
8349;SDS011;60699;48.946;8.412;2023-02-24T09:56:04;37.40;;;16.65;;
8349;SDS011;60699;48.946;8.412;2023-02-24T09:58:35;41.80;;;15.55;;
8349;SDS011;60699;48.946;8.412;2023-02-24T10:01:06;32.30;;;13.63;;
8349;SDS011;60699;48.946;8.412;2023-02-24T10:03:45;40.70;;;16.08;;
8349;SDS011;60699;48.946;8.412;2023-02-24T10:06:17;34.17;;;14.68;;
8349;SDS011;60699;48.946;8.412;2023-02-24T10:08:49;33.70;;;15.00;;
8349;SDS011;60699;48.946;8.412;2023-02-24T10:11:17;26.52;;;16.75;;
8349;SDS011;60699;48.946;8.412;2023-02-24T10:13:57;37.00;;;14.90;;
8349;SDS011;60699;48.946;8.412;2023-02-24T10:16:24;31.02;;;14.48;;
8349;SDS011;60699;48.946;8.412;2023-02-24T10:19:09;40.17;;;15.77;;
8349;SDS011;60699;48.946;8.412;2023-02-24T10:21:41;25.85;;;12.98;;
8349;SDS011;60699;48.946;8.412;2023-02-24T10:24:28;36.72;;;14.77;;
8349;SDS011;60699;48.946;8.412;2023-02-24T10:27:00;35.40;;;15.98;;
8349;SDS011;60699;48.946;8.412;2023-02-24T10:29:31;44.83;;;15.38;;
8349;SDS011;60699;48.946;8.412;2023-02-24T10:32:06;35.28;;;14.55;;
8349;SDS011;60699;48.946;8.412;2023-02-24T10:34:40;34.20;;;14.82;;
8349;SDS011;60699;48.946;8.412;2023-02-24T10:37:10;38.80;;;16.02;;
8349;SDS011;60699;48.946;8.412;2023-02-24T10:39:39;35.40;;;16.55;;
8349;SDS011;60699;48.946;8.412;2023-02-24T10:42:08;36.60;;;16.15;;
8349;SDS011;60699;48.946;8.412;2023-02-24T10:44:42;34.35;;;15.05;;
8349;SDS011;60699;48.946;8.412;2023-02-24T10:47:16;39.40;;;17.40;;
8349;SDS011;60699;48.946;8.412;2023-02-24T10:49:44;39.47;;;17.75;;
8349;SDS011;60699;48.946;8.412;2023-02-24T10:52:21;31.83;;;13.35;;
8349;SDS011;60699;48.946;8.412;2023-02-24T10:55:03;34.72;;;15.40;;
8349;SDS011;60699;48.946;8.412;2023-02-24T10:57:48;31.95;;;13.75;;
8349;SDS011;60699;48.946;8.412;2023-02-24T11:00:19;38.47;;;17.60;;
8349;SDS011;60699;48.946;8.412;2023-02-24T11:03:15;45.08;;;16.20;;
8349;SDS011;60699;48.946;8.412;2023-02-24T11:05:59;41.17;;;15.75;;
8349;SDS011;60699;48.946;8.412;2023-02-24T11:08:44;41.80;;;16.52;;
8349;SDS011;60699;48.946;8.412;2023-02-24T11:11:29;32.67;;;15.98;;
8349;SDS011;60699;48.946;8.412;2023-02-24T11:14:17;32.17;;;15.32;;
8349;SDS011;60699;48.946;8.412;2023-02-24T11:17:02;28.15;;;14.35;;
8349;SDS011;60699;48.946;8.412;2023-02-24T11:19:43;33.33;;;15.27;;
8349;SDS011;60699;48.946;8.412;2023-02-24T11:22:11;33.20;;;16.77;;
8349;SDS011;60699;48.946;8.412;2023-02-24T11:24:39;35.25;;;15.02;;
8349;SDS011;60699;48.946;8.412;2023-02-24T11:27:09;35.40;;;17.00;;
8349;SDS011;60699;48.946;8.412;2023-02-24T11:29:41;36.97;;;15.88;;
8349;SDS011;60699;48.946;8.412;2023-02-24T11:32:15;31.73;;;15.38;;
8349;SDS011;60699;48.946;8.412;2023-02-24T11:34:47;32.75;;;16.90;;
8349;SDS011;60699;48.946;8.412;2023-02-24T11:37:23;36.67;;;17.48;;
8349;SDS011;60699;48.946;8.412;2023-02-24T11:39:54;37.35;;;16.63;;
8349;SDS011;60699;48.946;8.412;2023-02-24T11:42:25;37.65;;;18.05;;
8349;SDS011;60699;48.946;8.412;2023-02-24T11:44:55;36.78;;;17.90;;
8349;SDS011;60699;48.946;8.412;2023-02-24T11:47:25;42.33;;;18.50;;
8349;SDS011;60699;48.946;8.412;2023-02-24T11:49:54;38.80;;;16.48;;
8349;SDS011;60699;48.946;8.412;2023-02-24T11:52:25;38.15;;;19.27;;
8349;SDS011;60699;48.946;8.412;2023-02-24T11:54:55;31.17;;;17.60;;
8349;SDS011;60699;48.946;8.412;2023-02-24T11:57:27;35.80;;;17.48;;
8349;SDS011;60699;48.946;8.412;2023-02-24T11:59:57;42.50;;;19.48;;
8349;SDS011;60699;48.946;8.412;2023-02-24T12:02:31;33.75;;;15.23;;
8349;SDS011;60699;48.946;8.412;2023-02-24T12:05:01;39.55;;;17.25;;
8349;SDS011;60699;48.946;8.412;2023-02-24T12:07:31;29.80;;;16.08;;
8349;SDS011;60699;48.946;8.412;2023-02-24T12:09:59;36.15;;;17.25;;
8349;SDS011;60699;48.946;8.412;2023-02-24T12:12:29;38.50;;;17.85;;
8349;SDS011;60699;48.946;8.412;2023-02-24T12:14:59;36.35;;;17.55;;
8349;SDS011;60699;48.946;8.412;2023-02-24T12:17:30;33.78;;;14.90;;
8349;SDS011;60699;48.946;8.412;2023-02-24T12:19:59;37.50;;;16.60;;
8349;SDS011;60699;48.946;8.412;2023-02-24T12:22:31;37.15;;;16.92;;
8349;SDS011;60699;48.946;8.412;2023-02-24T12:25:04;37.15;;;18.55;;
8349;SDS011;60699;48.946;8.412;2023-02-24T12:27:36;39.50;;;18.35;;
8349;SDS011;60699;48.946;8.412;2023-02-24T12:33:03;37.75;;;19.83;;
8349;SDS011;60699;48.946;8.412;2023-02-24T12:35:35;40.28;;;18.63;;
8349;SDS011;60699;48.946;8.412;2023-02-24T12:38:09;31.90;;;15.43;;
8349;SDS011;60699;48.946;8.412;2023-02-24T12:40:39;37.65;;;17.95;;
8349;SDS011;60699;48.946;8.412;2023-02-24T12:43:14;43.20;;;16.45;;
8349;SDS011;60699;48.946;8.412;2023-02-24T12:45:45;31.17;;;16.25;;
8349;SDS011;60699;48.946;8.412;2023-02-24T12:48:20;31.42;;;15.13;;
8349;SDS011;60699;48.946;8.412;2023-02-24T12:50:55;41.70;;;18.15;;
8349;SDS011;60699;48.946;8.412;2023-02-24T12:53:26;30.08;;;14.82;;
8349;SDS011;60699;48.946;8.412;2023-02-24T12:55:58;36.70;;;16.30;;
8349;SDS011;60699;48.946;8.412;2023-02-24T12:58:29;32.55;;;14.13;;
8349;SDS011;60699;48.946;8.412;2023-02-24T13:01:00;29.55;;;15.93;;
8349;SDS011;60699;48.946;8.412;2023-02-24T13:03:33;32.65;;;15.32;;
8349;SDS011;60699;48.946;8.412;2023-02-24T13:06:05;29.08;;;15.65;;
8349;SDS011;60699;48.946;8.412;2023-02-24T13:08:39;34.95;;;15.40;;
8349;SDS011;60699;48.946;8.412;2023-02-24T13:11:12;29.33;;;15.75;;
8349;SDS011;60699;48.946;8.412;2023-02-24T13:13:43;35.83;;;15.73;;
8349;SDS011;60699;48.946;8.412;2023-02-24T13:16:13;29.77;;;14.55;;
8349;SDS011;60699;48.946;8.412;2023-02-24T13:18:40;35.78;;;15.65;;
8349;SDS011;60699;48.946;8.412;2023-02-24T13:21:07;30.00;;;15.25;;
8349;SDS011;60699;48.946;8.412;2023-02-24T13:23:35;33.13;;;16.27;;
8349;SDS011;60699;48.946;8.412;2023-02-24T13:26:03;40.13;;;15.60;;
8349;SDS011;60699;48.946;8.412;2023-02-24T13:28:30;37.55;;;17.88;;
8349;SDS011;60699;48.946;8.412;2023-02-24T13:31:02;32.88;;;17.35;;
8349;SDS011;60699;48.946;8.412;2023-02-24T13:33:31;40.08;;;16.55;;
8349;SDS011;60699;48.946;8.412;2023-02-24T13:36:06;34.50;;;17.35;;
8349;SDS011;60699;48.946;8.412;2023-02-24T13:38:34;41.55;;;15.25;;
8349;SDS011;60699;48.946;8.412;2023-02-24T13:41:06;35.08;;;17.90;;
8349;SDS011;60699;48.946;8.412;2023-02-24T13:43:34;30.52;;;15.20;;
8349;SDS011;60699;48.946;8.412;2023-02-24T13:46:03;32.22;;;16.33;;
8349;SDS011;60699;48.946;8.412;2023-02-24T13:48:44;39.35;;;16.83;;
8349;SDS011;60699;48.946;8.412;2023-02-24T13:51:24;35.38;;;15.52;;
8349;SDS011;60699;48.946;8.412;2023-02-24T13:54:00;30.33;;;14.85;;
8349;SDS011;60699;48.946;8.412;2023-02-24T13:56:34;29.70;;;14.73;;
8349;SDS011;60699;48.946;8.412;2023-02-24T13:59:15;28.50;;;15.07;;
8349;SDS011;60699;48.946;8.412;2023-02-24T14:01:46;27.48;;;13.88;;
8349;SDS011;60699;48.946;8.412;2023-02-24T14:04:16;31.83;;;13.70;;
8349;SDS011;60699;48.946;8.412;2023-02-24T14:06:46;30.73;;;13.98;;
8349;SDS011;60699;48.946;8.412;2023-02-24T14:09:15;26.20;;;13.43;;
8349;SDS011;60699;48.946;8.412;2023-02-24T14:11:48;22.45;;;14.07;;
8349;SDS011;60699;48.946;8.412;2023-02-24T14:14:16;22.63;;;14.15;;
8349;SDS011;60699;48.946;8.412;2023-02-24T14:16:46;25.27;;;12.80;;
8349;SDS011;60699;48.946;8.412;2023-02-24T14:19:14;22.10;;;12.48;;
8349;SDS011;60699;48.946;8.412;2023-02-24T14:21:45;25.50;;;13.00;;
8349;SDS011;60699;48.946;8.412;2023-02-24T14:24:13;27.60;;;12.52;;
8349;SDS011;60699;48.946;8.412;2023-02-24T14:26:41;29.13;;;14.00;;
8349;SDS011;60699;48.946;8.412;2023-02-24T14:29:08;23.30;;;12.25;;
8349;SDS011;60699;48.946;8.412;2023-02-24T14:31:35;19.50;;;12.00;;
8349;SDS011;60699;48.946;8.412;2023-02-24T14:34:04;29.95;;;14.20;;
8349;SDS011;60699;48.946;8.412;2023-02-24T14:36:34;25.88;;;11.70;;
8349;SDS011;60699;48.946;8.412;2023-02-24T14:39:06;30.33;;;11.77;;
8349;SDS011;60699;48.946;8.412;2023-02-24T14:41:34;20.60;;;11.15;;
8349;SDS011;60699;48.946;8.412;2023-02-24T14:44:06;18.02;;;11.60;;
8349;SDS011;60699;48.946;8.412;2023-02-24T14:46:44;18.35;;;12.30;;
8349;SDS011;60699;48.946;8.412;2023-02-24T14:49:20;29.67;;;12.23;;
8349;SDS011;60699;48.946;8.412;2023-02-24T14:51:48;20.73;;;11.38;;
8349;SDS011;60699;48.946;8.412;2023-02-24T14:54:18;21.17;;;12.00;;
8349;SDS011;60699;48.946;8.412;2023-02-24T14:56:46;19.63;;;12.50;;
8349;SDS011;60699;48.946;8.412;2023-02-24T14:59:14;16.90;;;10.18;;
8349;SDS011;60699;48.946;8.412;2023-02-24T15:01:44;21.90;;;11.20;;
8349;SDS011;60699;48.946;8.412;2023-02-24T15:04:14;20.35;;;12.95;;
8349;SDS011;60699;48.946;8.412;2023-02-24T15:06:46;20.33;;;12.55;;